createdAt,value
2019-02-23T00:01:14.767Z,-0.17
2019-02-23T00:03:44.283Z,-0.14
2019-02-23T00:06:13.764Z,-0.14
2019-02-23T00:08:43.257Z,-0.29
2019-02-23T00:11:12.721Z,-0.29
2019-02-23T00:13:42.181Z,-0.39
2019-02-23T00:16:11.663Z,-0.56
2019-02-23T00:18:41.156Z,-0.75
2019-02-23T00:21:10.622Z,-1.59
2019-02-23T00:23:40.113Z,-1.87
2019-02-23T00:26:09.652Z,-1.94
2019-02-23T00:28:39.159Z,-2.07
2019-02-23T00:31:08.641Z,-2.33
2019-02-23T00:33:38.438Z,-2.46
2019-02-23T00:36:07.924Z,-2.55
2019-02-23T00:38:37.447Z,-2.57
2019-02-23T00:41:06.954Z,-2.69
2019-02-23T00:43:36.429Z,-2.92
2019-02-23T00:46:05.936Z,-3.00
2019-02-23T00:48:35.518Z,-2.96
2019-02-23T00:51:05.004Z,-2.88
2019-02-23T00:53:34.497Z,-2.96
2019-02-23T00:56:03.985Z,-3.03
2019-02-23T00:58:33.466Z,-3.36
2019-02-23T01:01:02.993Z,-3.37
2019-02-23T01:03:32.538Z,-3.43
2019-02-23T01:06:02.017Z,-3.49
2019-02-23T01:08:31.507Z,-3.62
2019-02-23T01:11:01.019Z,-3.64
2019-02-23T01:13:30.525Z,-3.58
2019-02-23T01:16:00.082Z,-3.96
2019-02-23T01:18:29.591Z,-3.96
2019-02-23T01:20:59.135Z,-3.95
2019-02-23T01:23:28.626Z,-3.92
2019-02-23T01:25:58.112Z,-3.95
2019-02-23T01:28:27.615Z,-4.03
2019-02-23T01:30:57.126Z,-4.44
2019-02-23T01:33:26.743Z,-4.51
2019-02-23T01:35:56.218Z,-4.46
2019-02-23T01:38:25.703Z,-4.56
2019-02-23T01:40:55.233Z,-4.86
2019-02-23T01:43:24.679Z,-4.79
2019-02-23T01:45:54.218Z,-4.71
2019-02-23T01:48:23.783Z,-4.73
2019-02-23T01:50:53.312Z,-4.78
2019-02-23T01:53:22.796Z,-4.85
2019-02-23T01:55:52.295Z,-4.89
2019-02-23T01:58:21.784Z,-4.87
2019-02-23T02:00:51.338Z,-4.91
2019-02-23T02:03:20.832Z,-5.06
2019-02-23T02:05:50.499Z,-5.09
2019-02-23T02:08:19.995Z,-4.88
2019-02-23T02:10:49.434Z,-4.96
2019-02-23T02:13:18.959Z,-4.84
2019-02-23T02:15:48.549Z,-4.78
2019-02-23T02:18:18.038Z,-4.91
2019-02-23T02:20:47.514Z,-4.87
2019-02-23T02:23:17.075Z,-4.92
2019-02-23T02:25:46.573Z,-4.86
2019-02-23T02:28:16.068Z,-4.87
2019-02-23T02:30:45.571Z,-4.73
2019-02-23T02:33:15.064Z,-4.53
2019-02-23T02:35:44.563Z,-4.48
2019-02-23T02:38:14.039Z,-4.44
2019-02-23T02:40:43.502Z,-4.39
2019-02-23T02:43:12.991Z,-4.47
2019-02-23T02:45:42.620Z,-4.56
2019-02-23T02:48:12.110Z,-4.96
2019-02-23T02:50:41.640Z,-5.11
2019-02-23T02:53:11.149Z,-5.20
2019-02-23T02:55:40.632Z,-5.05
2019-02-23T02:58:11.243Z,-4.96
2019-02-23T03:00:40.750Z,-4.91
2019-02-23T03:03:11.996Z,-4.84
2019-02-23T03:05:41.540Z,-4.77
2019-02-23T03:08:11.076Z,-5.01
2019-02-23T03:10:40.555Z,-4.87
2019-02-23T03:13:10.041Z,-5.01
2019-02-23T03:15:39.523Z,-5.13
2019-02-23T03:18:09.064Z,-5.24
2019-02-23T03:20:38.593Z,-5.30
2019-02-23T03:23:08.139Z,-5.19
2019-02-23T03:25:37.664Z,-5.07
2019-02-23T03:28:07.168Z,-5.07
2019-02-23T03:30:36.655Z,-4.85
2019-02-23T03:33:06.217Z,-4.69
2019-02-23T03:35:35.769Z,-4.41
2019-02-23T03:38:05.221Z,-4.65
2019-02-23T03:40:35.094Z,-4.74
2019-02-23T03:43:04.559Z,-4.81
2019-02-23T03:45:34.023Z,-4.66
2019-02-23T03:48:03.512Z,-4.63
2019-02-23T03:50:33.039Z,-4.55
2019-02-23T03:53:02.627Z,-4.67
2019-02-23T03:55:32.126Z,-4.93
2019-02-23T03:58:01.659Z,-4.90
2019-02-23T04:00:31.217Z,-5.06
2019-02-23T04:03:00.714Z,-4.82
2019-02-23T04:05:30.220Z,-4.69
2019-02-23T04:07:59.738Z,-4.50
2019-02-23T04:10:29.278Z,-4.28
2019-02-23T04:12:58.798Z,-4.28
2019-02-23T04:15:28.278Z,-4.38
2019-02-23T04:17:57.761Z,-4.31
2019-02-23T04:20:27.228Z,-4.18
2019-02-23T04:22:56.709Z,-4.15
2019-02-23T04:25:26.176Z,-4.06
2019-02-23T04:27:55.685Z,-3.99
2019-02-23T04:30:25.160Z,-4.24
2019-02-23T04:32:54.638Z,-4.30
2019-02-23T04:35:24.129Z,-4.25
2019-02-23T04:37:53.637Z,-4.16
2019-02-23T04:40:23.185Z,-4.15
2019-02-23T04:42:52.658Z,-4.39
2019-02-23T04:45:22.126Z,-4.31
2019-02-23T04:47:51.636Z,-4.38
2019-02-23T04:50:21.138Z,-4.32
2019-02-23T04:52:50.649Z,-4.33
2019-02-23T04:55:20.584Z,-4.57
2019-02-23T04:57:50.086Z,-4.58
2019-02-23T05:00:19.610Z,-4.62
2019-02-23T05:02:49.127Z,-4.79
2019-02-23T05:05:18.672Z,-4.84
2019-02-23T05:07:48.161Z,-4.98
2019-02-23T05:10:17.672Z,-5.03
2019-02-23T05:12:47.160Z,-5.02
2019-02-23T05:15:16.669Z,-5.03
2019-02-23T05:17:46.214Z,-4.88
2019-02-23T05:20:15.697Z,-4.75
2019-02-23T05:22:45.162Z,-4.72
2019-02-23T05:25:14.636Z,-4.67
2019-02-23T05:27:44.084Z,-4.67
2019-02-23T05:30:13.557Z,-4.53
2019-02-23T05:32:43.073Z,-4.68
2019-02-23T05:35:12.659Z,-4.90
2019-02-23T05:37:42.113Z,-4.94
2019-02-23T05:40:11.658Z,-4.89
2019-02-23T05:42:41.133Z,-5.02
2019-02-23T05:45:10.710Z,-5.15
2019-02-23T05:47:40.215Z,-5.20
2019-02-23T05:50:09.705Z,-5.17
2019-02-23T05:52:39.233Z,-5.24
2019-02-23T05:55:08.924Z,-5.36
2019-02-23T05:57:38.467Z,-5.46
2019-02-23T06:00:09.602Z,-5.40
2019-02-23T06:02:39.085Z,-5.61
2019-02-23T06:05:08.808Z,-5.61
2019-02-23T06:07:38.313Z,-5.62
2019-02-23T06:10:09.613Z,-5.70
2019-02-23T06:12:39.074Z,-5.43
2019-02-23T06:15:11.262Z,-5.24
2019-02-23T06:17:40.711Z,-5.12
2019-02-23T06:20:11.041Z,-5.03
2019-02-23T06:22:40.551Z,-5.14
2019-02-23T06:25:10.267Z,-4.91
2019-02-23T06:27:39.752Z,-4.85
2019-02-23T06:30:11.060Z,-4.81
2019-02-23T06:32:40.553Z,-4.99
2019-02-23T06:35:10.189Z,-5.02
2019-02-23T06:37:39.708Z,-5.16
2019-02-23T06:40:09.460Z,-4.96
2019-02-23T06:42:38.931Z,-5.04
2019-02-23T06:45:08.735Z,-5.05
2019-02-23T06:47:38.228Z,-4.89
2019-02-23T06:50:07.762Z,-4.68
2019-02-23T06:52:37.270Z,-4.82
2019-02-23T06:55:07.228Z,-4.78
2019-02-23T06:57:37.024Z,-4.76
2019-02-23T07:00:09.106Z,-4.82
2019-02-23T07:02:38.595Z,-4.85
2019-02-23T07:05:08.255Z,-4.85
2019-02-23T07:07:37.741Z,-4.81
2019-02-23T07:10:09.093Z,-4.69
2019-02-23T07:12:38.549Z,-4.95
2019-02-23T07:15:08.515Z,-4.81
2019-02-23T07:17:38.012Z,-4.74
2019-02-23T07:20:08.046Z,-4.58
2019-02-23T07:22:37.494Z,-4.61
2019-02-23T07:25:07.354Z,-4.66
2019-02-23T07:27:36.859Z,-4.36
2019-02-23T07:30:07.221Z,-4.28
2019-02-23T07:32:36.741Z,-4.59
2019-02-23T07:35:06.322Z,-4.43
2019-02-23T07:37:35.894Z,-4.62
2019-02-23T07:40:05.573Z,-4.21
2019-02-23T07:42:35.132Z,-3.76
2019-02-23T07:45:04.867Z,-3.58
2019-02-23T07:47:34.480Z,-3.31
2019-02-23T07:50:04.121Z,-3.09
2019-02-23T07:52:33.608Z,-2.91
2019-02-23T07:55:03.129Z,-2.88
2019-02-23T07:57:32.639Z,-2.77
2019-02-23T08:00:02.120Z,-3.42
2019-02-23T08:02:31.589Z,-3.98
2019-02-23T08:05:01.202Z,-4.34
2019-02-23T08:07:30.698Z,-4.62
2019-02-23T08:10:00.346Z,-4.50
2019-02-23T08:12:29.847Z,-4.24
2019-02-23T08:14:59.338Z,-4.12
2019-02-23T08:17:28.822Z,-4.29
2019-02-23T08:19:58.353Z,-4.06
2019-02-23T08:22:37.009Z,-3.86
2019-02-23T08:24:59.307Z,-3.78
2019-02-23T08:27:29.018Z,-3.79
2019-02-23T08:29:58.541Z,-3.66
2019-02-23T08:32:28.063Z,-3.11
2019-02-23T08:34:57.585Z,-2.63
2019-02-23T08:37:27.207Z,-2.65
2019-02-23T08:39:56.784Z,-2.54
2019-02-23T08:42:39.112Z,-2.52
2019-02-23T08:45:09.016Z,-2.69
2019-02-23T08:47:38.565Z,-2.92
2019-02-23T08:50:10.025Z,-3.50
2019-02-23T08:52:48.726Z,-3.61
2019-02-23T08:55:11.068Z,-3.25
2019-02-23T08:57:40.589Z,-2.99
2019-02-23T09:00:12.860Z,-3.03
2019-02-23T09:02:42.365Z,-2.69
2019-02-23T09:05:12.450Z,-2.60
2019-02-23T09:07:43.102Z,-2.60
2019-02-23T09:10:13.060Z,-2.44
2019-02-23T09:12:42.592Z,-2.54
2019-02-23T09:15:12.385Z,-2.39
2019-02-23T09:17:41.965Z,-2.60
2019-02-23T09:20:11.499Z,-2.62
2019-02-23T09:22:41.024Z,-3.03
2019-02-23T09:25:10.660Z,-3.35
2019-02-23T09:27:40.212Z,-3.91
2019-02-23T09:30:10.033Z,-3.99
2019-02-23T09:32:39.544Z,-4.09
2019-02-23T09:35:09.192Z,-3.64
2019-02-23T09:37:38.695Z,-3.49
2019-02-23T09:40:09.233Z,-2.95
2019-02-23T09:42:39.143Z,-2.88
2019-02-23T09:45:10.205Z,-2.56
2019-02-23T09:47:39.727Z,-2.37
2019-02-23T09:50:09.280Z,-2.11
2019-02-23T09:52:38.800Z,-2.42
2019-02-23T09:55:08.627Z,-2.52
2019-02-23T09:57:38.140Z,-3.05
2019-02-23T10:00:08.968Z,-3.20
2019-02-23T10:02:38.455Z,-3.56
2019-02-23T10:05:08.184Z,-3.30
2019-02-23T10:07:37.663Z,-3.51
2019-02-23T10:10:07.920Z,-3.68
2019-02-23T10:12:37.432Z,-3.92
2019-02-23T10:15:07.470Z,-3.82
2019-02-23T10:17:36.964Z,-3.51
2019-02-23T10:20:07.198Z,-3.83
2019-02-23T10:22:39.404Z,-3.83
2019-02-23T10:25:08.352Z,-4.05
2019-02-23T10:27:37.945Z,-4.21
2019-02-23T10:30:08.698Z,-4.25
2019-02-23T10:32:38.196Z,-4.33
2019-02-23T10:35:09.027Z,-4.26
2019-02-23T10:37:38.507Z,-4.07
2019-02-23T10:40:09.544Z,-3.82
2019-02-23T10:42:40.392Z,-3.35
2019-02-23T10:45:10.700Z,-3.13
2019-02-23T10:47:40.232Z,-3.21
2019-02-23T10:50:10.090Z,-3.18
2019-02-23T10:52:39.586Z,-3.12
2019-02-23T10:55:10.079Z,-3.46
2019-02-23T10:57:39.587Z,-3.46
2019-02-23T11:00:16.071Z,-3.18
2019-02-23T11:02:45.791Z,-3.27
2019-02-23T11:05:15.695Z,-3.65
2019-02-23T11:07:45.203Z,-3.65
2019-02-23T11:10:16.172Z,-3.24
2019-02-23T11:12:49.809Z,-3.07
2019-02-23T11:15:19.275Z,-3.14
2019-02-23T11:17:48.897Z,-3.05
2019-02-23T11:20:18.650Z,-3.21
2019-02-23T11:22:48.167Z,-3.61
2019-02-23T11:25:17.651Z,-3.60
2019-02-23T11:27:47.183Z,-3.43
2019-02-23T11:30:17.122Z,-3.19
2019-02-23T11:32:46.631Z,-3.39
2019-02-23T11:35:17.504Z,-3.26
2019-02-23T11:37:47.418Z,-3.00
2019-02-23T11:40:16.909Z,-3.16
2019-02-23T11:42:46.432Z,-2.56
2019-02-23T11:45:15.971Z,-2.48
2019-02-23T11:47:45.486Z,-3.17
2019-02-23T11:50:15.488Z,-3.21
2019-02-23T11:52:45.017Z,-3.30
2019-02-23T11:55:14.611Z,-3.07
2019-02-23T11:57:44.107Z,-3.54
2019-02-23T12:00:13.891Z,-3.51
2019-02-23T12:02:51.953Z,-3.42
2019-02-23T12:05:14.704Z,-3.23
2019-02-23T12:07:44.263Z,-3.30
2019-02-23T12:10:13.972Z,-2.99
2019-02-23T12:12:43.432Z,-2.89
2019-02-23T12:15:13.229Z,-2.89
2019-02-23T12:17:42.708Z,-3.19
2019-02-23T12:20:12.394Z,-3.35
2019-02-23T12:22:41.895Z,-3.69
2019-02-23T12:25:15.058Z,-3.62
2019-02-23T12:27:42.602Z,-3.23
2019-02-23T12:30:12.074Z,-3.51
2019-02-23T12:32:41.517Z,-3.77
2019-02-23T12:35:11.055Z,-3.51
2019-02-23T12:37:40.549Z,-3.64
2019-02-23T12:40:10.341Z,-3.78
2019-02-23T12:42:39.825Z,-3.72
2019-02-23T12:45:09.416Z,-3.91
2019-02-23T12:47:38.901Z,-3.88
2019-02-23T12:50:08.871Z,-3.69
2019-02-23T12:52:38.384Z,-3.74
2019-02-23T12:55:08.588Z,-3.58
2019-02-23T12:57:38.112Z,-3.47
2019-02-23T13:00:08.923Z,-3.46
2019-02-23T13:02:38.472Z,-3.55
2019-02-23T13:05:08.029Z,-3.59
2019-02-23T13:07:40.359Z,-3.60
2019-02-23T13:10:11.414Z,-3.44
2019-02-23T13:13:14.463Z,-3.28
2019-02-23T13:15:58.049Z,-3.47
2019-02-23T13:19:26.395Z,-3.53
2019-02-23T13:22:32.597Z,-3.67
2019-02-23T13:25:35.192Z,-3.86
2019-02-23T13:29:03.852Z,-4.07
2019-02-23T13:32:21.572Z,-3.85
2019-02-23T13:35:27.070Z,-3.85
2019-02-23T13:38:29.616Z,-3.62
2019-02-23T13:41:51.996Z,-3.46
2019-02-23T13:44:47.851Z,-3.82
2019-02-23T13:47:42.030Z,-3.69
2019-02-23T13:50:38.705Z,-3.70
2019-02-23T13:53:53.895Z,-4.01
2019-02-23T13:56:54.696Z,-4.17
2019-02-23T14:00:17.423Z,-4.39
2019-02-23T14:03:29.322Z,-4.41
2019-02-23T14:06:19.830Z,-4.20
2019-02-23T14:09:20.585Z,-4.04
2019-02-23T14:12:29.912Z,-4.17
2019-02-23T14:15:38.079Z,-4.23
2019-02-23T14:18:39.980Z,-4.01
2019-02-23T14:21:56.208Z,-3.99
2019-02-23T14:24:50.540Z,-4.17
2019-02-23T14:27:33.908Z,-4.21
2019-02-23T14:30:36.196Z,-4.23
2019-02-23T14:33:41.316Z,-4.12
2019-02-23T14:36:16.446Z,-4.34
2019-02-23T14:39:20.173Z,-4.65
2019-02-23T14:42:17.481Z,-4.57
2019-02-23T14:45:33.793Z,-4.60
2019-02-23T14:48:29.250Z,-4.40
2019-02-23T14:51:39.672Z,-4.53
2019-02-23T14:54:19.187Z,-4.66
2019-02-23T14:57:41.096Z,-4.67
2019-02-23T15:00:40.815Z,-4.73
2019-02-23T15:03:50.067Z,-4.70
2019-02-23T15:06:59.914Z,-4.77
2019-02-23T15:10:16.408Z,-4.81
2019-02-23T15:13:45.861Z,-4.81
2019-02-23T15:16:28.580Z,-4.76
2019-02-23T15:19:36.893Z,-4.82
2019-02-23T15:22:33.767Z,-4.86
2019-02-23T15:26:02.286Z,-4.84
2019-02-23T15:29:18.441Z,-4.86
2019-02-23T15:32:17.998Z,-4.83
2019-02-23T15:35:14.417Z,-4.94
2019-02-23T15:38:25.788Z,-5.04
2019-02-23T15:41:29.310Z,-5.11
2019-02-23T15:44:36.286Z,-5.12
2019-02-23T15:47:43.224Z,-5.17
2019-02-23T15:50:13.587Z,-5.30
2019-02-23T15:52:43.249Z,-5.34
2019-02-23T15:55:25.340Z,-5.47
2019-02-23T15:57:43.931Z,-5.55
2019-02-23T16:00:13.432Z,-5.55
2019-02-23T16:02:42.918Z,-5.53
2019-02-23T16:05:12.766Z,-5.55
2019-02-23T16:07:43.294Z,-5.64
2019-02-23T16:10:13.196Z,-5.66
2019-02-23T16:12:42.745Z,-5.80
2019-02-23T16:15:12.281Z,-5.72
2019-02-23T16:17:41.774Z,-5.73
2019-02-23T16:20:11.311Z,-5.68
2019-02-23T16:22:40.846Z,-5.70
2019-02-23T16:25:10.370Z,-5.73
2019-02-23T16:27:39.867Z,-5.66
2019-02-23T16:30:09.765Z,-5.76
2019-02-23T16:32:39.304Z,-5.68
2019-02-23T16:35:08.929Z,-5.60
2019-02-23T16:37:38.411Z,-5.60
2019-02-23T16:40:08.019Z,-5.57
2019-02-23T16:42:37.526Z,-5.61
2019-02-23T16:45:07.069Z,-5.66
2019-02-23T16:47:36.610Z,-5.82
2019-02-23T16:50:06.272Z,-5.86
2019-02-23T16:52:35.767Z,-5.84
2019-02-23T16:55:05.471Z,-5.81
2019-02-23T16:57:35.021Z,-5.75
2019-02-23T17:00:04.900Z,-5.72
2019-02-23T17:02:36.087Z,-5.74
2019-02-23T17:05:05.769Z,-5.69
2019-02-23T17:07:35.347Z,-5.57
2019-02-23T17:10:05.118Z,-5.54
2019-02-23T17:12:35.466Z,-5.53
2019-02-23T17:15:05.112Z,-5.43
2019-02-23T17:17:34.606Z,-5.41
2019-02-23T17:20:04.202Z,-5.34
2019-02-23T17:22:33.752Z,-5.37
2019-02-23T17:25:03.260Z,-5.28
2019-02-23T17:27:36.757Z,-5.24
2019-02-23T17:30:04.125Z,-5.23
2019-02-23T17:32:33.656Z,-5.26
2019-02-23T17:35:03.147Z,-5.27
2019-02-23T17:37:32.702Z,-5.24
2019-02-23T17:40:02.219Z,-5.17
2019-02-23T17:42:33.054Z,-5.18
2019-02-23T17:45:02.609Z,-5.12
2019-02-23T17:47:32.139Z,-5.08
2019-02-23T17:50:01.674Z,-5.19
2019-02-23T17:52:31.141Z,-5.12
2019-02-23T17:55:00.660Z,-5.12
2019-02-23T17:57:30.151Z,-5.09
2019-02-23T17:59:59.660Z,-5.30
2019-02-23T18:02:29.140Z,-5.39
2019-02-23T18:05:01.684Z,-5.34
2019-02-23T18:07:31.204Z,-5.33
2019-02-23T18:10:00.722Z,-5.38
2019-02-23T18:12:30.292Z,-5.37
2019-02-23T18:14:59.850Z,-5.33
2019-02-23T18:17:29.382Z,-5.33
2019-02-23T18:19:58.906Z,-5.35
2019-02-23T18:22:28.432Z,-5.39
2019-02-23T18:24:58.009Z,-5.43
2019-02-23T18:27:27.526Z,-5.46
2019-02-23T18:29:57.313Z,-5.46
2019-02-23T18:32:26.813Z,-5.43
2019-02-23T18:34:56.291Z,-5.38
2019-02-23T18:37:25.757Z,-5.33
2019-02-23T18:39:55.295Z,-5.35
2019-02-23T18:42:24.804Z,-5.38
2019-02-23T18:44:54.280Z,-5.46
2019-02-23T18:47:23.766Z,-5.48
2019-02-23T18:49:53.347Z,-5.46
2019-02-23T18:52:22.854Z,-5.42
2019-02-23T18:54:52.390Z,-5.41
2019-02-23T18:57:21.869Z,-5.53
2019-02-23T18:59:51.369Z,-5.52
2019-02-23T19:02:20.867Z,-5.55
2019-02-23T19:04:50.381Z,-5.42
2019-02-23T19:07:19.972Z,-5.47
2019-02-23T19:09:49.450Z,-5.56
2019-02-23T19:12:18.945Z,-5.59
2019-02-23T19:14:48.519Z,-5.59
2019-02-23T19:17:17.991Z,-5.61
2019-02-23T19:19:47.555Z,-5.52
2019-02-23T19:22:17.196Z,-5.47
2019-02-23T19:24:46.681Z,-5.46
2019-02-23T19:27:16.615Z,-5.46
2019-02-23T19:29:46.115Z,-5.45
2019-02-23T19:32:15.618Z,-5.52
2019-02-23T19:34:45.108Z,-5.57
2019-02-23T19:37:14.622Z,-5.65
2019-02-23T19:39:44.128Z,-5.67
2019-02-23T19:42:13.611Z,-5.67
2019-02-23T19:44:43.155Z,-5.71
2019-02-23T19:47:15.481Z,-5.74
2019-02-23T19:49:44.993Z,-5.76
2019-02-23T19:52:18.807Z,-5.75
2019-02-23T19:54:48.372Z,-5.74
2019-02-23T19:57:17.852Z,-5.78
2019-02-23T19:59:47.350Z,-5.70
2019-02-23T20:02:16.850Z,-5.64
2019-02-23T20:04:46.371Z,-5.69
2019-02-23T20:07:15.840Z,-5.75
2019-02-23T20:09:45.545Z,-5.79
2019-02-23T20:12:15.067Z,-5.75
2019-02-23T20:14:44.536Z,-5.77
2019-02-23T20:17:14.078Z,-5.76
2019-02-23T20:19:43.550Z,-5.72
2019-02-23T20:22:13.032Z,-5.78
2019-02-23T20:24:42.568Z,-5.74
2019-02-23T20:27:12.111Z,-5.83
2019-02-23T20:29:41.704Z,-5.80
2019-02-23T20:32:11.199Z,-5.81
2019-02-23T20:34:40.711Z,-5.79
2019-02-23T20:37:10.325Z,-5.84
2019-02-23T20:39:39.849Z,-5.79
2019-02-23T20:42:09.329Z,-5.74
2019-02-23T20:44:38.826Z,-5.86
2019-02-23T20:47:08.355Z,-5.79
2019-02-23T20:49:37.876Z,-5.81
2019-02-23T20:52:08.084Z,-5.86
2019-02-23T20:54:37.558Z,-5.79
2019-02-23T20:57:13.639Z,-5.78
2019-02-23T20:59:38.227Z,-5.76
2019-02-23T21:02:07.728Z,-5.82
2019-02-23T21:04:37.235Z,-5.85
2019-02-23T21:07:06.716Z,-5.86
2019-02-23T21:09:36.236Z,-5.90
2019-02-23T21:12:05.756Z,-5.84
2019-02-23T21:14:35.257Z,-5.84
2019-02-23T21:17:04.832Z,-5.92
2019-02-23T21:19:34.324Z,-5.92
2019-02-23T21:22:03.799Z,-5.95
2019-02-23T21:24:33.262Z,-5.92
2019-02-23T21:27:02.784Z,-6.01
2019-02-23T21:29:32.297Z,-5.98
2019-02-23T21:32:01.799Z,-5.99
2019-02-23T21:34:31.272Z,-6.11
2019-02-23T21:37:00.755Z,-6.10
2019-02-23T21:39:30.248Z,-6.19
2019-02-23T21:41:59.772Z,-6.11
2019-02-23T21:44:29.319Z,-6.06
2019-02-23T21:46:58.769Z,-6.14
2019-02-23T21:49:28.312Z,-6.04
2019-02-23T21:51:57.796Z,-5.99
2019-02-23T21:54:27.252Z,-6.01
2019-02-23T21:56:56.757Z,-5.91
2019-02-23T21:59:26.288Z,-5.88
2019-02-23T22:01:55.750Z,-5.84
2019-02-23T22:04:25.290Z,-5.90
2019-02-23T22:06:54.764Z,-5.91
2019-02-23T22:09:24.198Z,-5.86
2019-02-23T22:11:53.685Z,-5.76
2019-02-23T22:14:23.172Z,-5.79
2019-02-23T22:16:52.671Z,-5.91
2019-02-23T22:19:22.129Z,-5.84
2019-02-23T22:21:51.645Z,-5.86
2019-02-23T22:24:21.160Z,-5.94
2019-02-23T22:26:50.648Z,-5.79
2019-02-23T22:29:20.170Z,-5.83
2019-02-23T22:31:49.650Z,-5.78
2019-02-23T22:34:19.167Z,-5.85
2019-02-23T22:36:48.627Z,-5.93
2019-02-23T22:39:18.073Z,-5.90
2019-02-23T22:41:49.806Z,-5.87
2019-02-23T22:44:18.748Z,-5.83
2019-02-23T22:46:48.238Z,-5.89
2019-02-23T22:49:17.711Z,-5.93
2019-02-23T22:51:47.175Z,-5.84
2019-02-23T22:54:16.632Z,-5.81
2019-02-23T22:56:46.089Z,-5.74
2019-02-23T22:59:15.612Z,-5.64
2019-02-23T23:01:45.169Z,-5.65
2019-02-23T23:04:14.651Z,-5.66
2019-02-23T23:06:44.103Z,-5.59
2019-02-23T23:09:17.166Z,-5.65
2019-02-23T23:11:46.698Z,-5.73
2019-02-23T23:14:16.179Z,-5.75
2019-02-23T23:16:45.705Z,-5.83
2019-02-23T23:19:15.207Z,-5.88
2019-02-23T23:21:44.700Z,-5.89
2019-02-23T23:24:14.258Z,-5.88
2019-02-23T23:26:43.755Z,-5.88
2019-02-23T23:29:13.264Z,-5.89
2019-02-23T23:31:42.734Z,-5.89
2019-02-23T23:34:12.205Z,-5.87
2019-02-23T23:36:41.686Z,-5.87
2019-02-23T23:39:11.127Z,-5.90
2019-02-23T23:41:40.586Z,-5.92
2019-02-23T23:44:10.061Z,-6.02
2019-02-23T23:46:39.511Z,-6.10
2019-02-23T23:49:08.978Z,-5.98
2019-02-23T23:51:38.466Z,-6.05
2019-02-23T23:54:07.949Z,-6.09
2019-02-23T23:56:37.470Z,-5.98
2019-02-23T23:59:06.935Z,-6.09
